Lake Tahoe, California
Current Conditions -  °F | °C
As of 6:53 AM on Thursday 23 Oct 2014 (Local Time) from KTVL Reporting Station
Clear Clear  
Wind Chill: 13°   Ceiling: Unl
Heat Index: 13°   Visibility: 10mi
Dew Point: -4°   Wind: 13mph
Humidity: 31%   Direction: 150°SSE
Pressure: 30.15"   Gusts: 20mph
Location:  38.9°N, 120°W
Report Text: KTVL 231353Z AUTO 15011G17KT 10SM CLR 13/M04 A3015 RMK AO2 SLP164 T01281039
Loading
Personal Weather Stations






























Interactive Weather Map
Tropical Storm Tracking
New forecast layout! Learn more

10-Day Weather Forecast

Advertisements
Track Severe Weather on mobile